Zeit gehen
| Name | Zeit gehen |
|---|---|
| Muster | Time Walk |
| Art | Zauberspruch |
| Beschreibung | Nehmen Sie nach diesem Zug einen zusätzlichen Zug. |
| Künstler | Tyler Walpole |
| Edition | Ewiges Wochenende 2022 #1NAVC |
| Tapete | |
| Bild |
Um Zeit gehen
Zeit gehen, Zauberspruch, entworfen von Amy Weber Erstveröffentlichung in August 1993 bei der Bearbeitung Limited Edition Alpha und wurde genau in gedruckt 13 verschiedene Formen. Siehe Spiel in 1 Format: Vintage. Es wird derzeit zum niedrigsten Preis von verkauft € 434,89. Es ist eine Schlüsselkarte drin 1 Combo.
Ein Deck, das sich darauf konzentriert, das Spiel zu kontrollieren und den Gegner aufzuhalten, würde am meisten von Time Walk profitieren, da es zusätzliche Möglichkeiten bietet, die Spielkontrolle aufrechtzuerhalten und den Gegner auszumanövrieren. Während Time Walk eine starke Karte ist, gibt es möglicherweise bessere Alternativen wie Time Warp oder Temporal Manipulation, die ähnliche Effekte mit zusätzlichen Vorteilen bieten und sie zu vielseitigeren Optionen für den Wettbewerbsspiel machen. Dennoch kann Time Walk immer noch eine starke Ergänzung in bestimmten Strategien sein, die auf zusätzliche Züge angewiesen sind, um den Sieg zu sichern.
Regeln
04/10/2004
Falls mehrere „zusätzliche Zug“-Effekte im selben Zug verrechnet werden, führst du sie in umgekehrter Reihenfolge zu der Reihenfolge aus, in der die Effekte verrechnet wurden.
Wo zu kaufen
![]() | TCG Player | 8 uni.
| € 429,07 | Shop besuchen |
![]() | Card Kingdom | 5 uni.
| € 18936,12 | Shop besuchen |
![]() | Ebay.com | Shop besuchen | ||
![]() | Cardkingdom | Shop besuchen | ||
![]() | Printing proxies | $ 0.75 | Shop besuchen |
*Diese Website enthält Affiliate-Links, für die wir möglicherweise eine Vergütung erhalten
Eine Gruppe
Preisalarm ?
Benachrichtigen Sie mich, wenn der Preis hereinkommt
Geschichte der Preisentwicklung

Preisgeschichte
| Datum | Minimaler Preis | Durchschnittlicher Preis | Decks |
|---|---|---|---|
| 2024-09-07 | 555.44 EUR | 3618.48 EUR | 0 |
| 2024-09-09 | 556.83 EUR | 3618.82 EUR | 0 |
| 2024-09-16 | 548.55 EUR | 3616.76 EUR | 0 |
| 2024-09-23 | 544.06 EUR | 3615.63 EUR | 0 |
| 2024-09-30 | 537.79 EUR | 3614.07 EUR | 0 |
| 2024-10-07 | 545.31 EUR | 3615.95 EUR | 0 |
| 2024-10-14 | 557.23 EUR | 3641.65 EUR | 0 |
| 2024-10-21 | 543.75 EUR | 3615.55 EUR | 1 |
| 2024-10-28 | 478.19 EUR | 3737.33 EUR | 2 |
| 2024-11-06 | 473.25 EUR | 3779.16 EUR | 0 |
| 2024-11-11 | 473.60 EUR | 3776.90 EUR | 0 |
| 2024-11-18 | 471.86 EUR | 3740.76 EUR | 0 |
| 2024-11-25 | 470.59 EUR | 3703.81 EUR | 0 |
| 2024-12-02 | 487.70 EUR | 3601.54 EUR | 1 |
| 2024-12-09 | 490.25 EUR | 3602.18 EUR | 0 |
| 2024-12-19 | 490.25 EUR | 3602.18 EUR | 0 |
| 2024-12-23 | 490.25 EUR | 3602.18 EUR | 0 |
| 2024-12-30 | 490.25 EUR | 3602.18 EUR | 0 |
| 2025-01-01 | 490.25 EUR | 3602.18 EUR | 0 |
| 2025-01-06 | 490.25 EUR | 3602.18 EUR | 0 |
| 2025-01-13 | 490.25 EUR | 3602.18 EUR | 0 |
| 2025-01-20 | 490.25 EUR | 3602.18 EUR | 2 |
| 2025-01-27 | 490.25 EUR | 3602.18 EUR | 0 |
| 2025-02-03 | 490.25 EUR | 3602.18 EUR | 0 |
| 2025-02-10 | 1578.03 EUR | 3911.98 EUR | 0 |
| 2025-02-18 | 449.75 EUR | 449.75 EUR | 0 |
| 2025-04-27 | 448.51 EUR | 2610.28 EUR | 0 |
| 2025-04-28 | 447.21 EUR | 1166.04 EUR | 0 |
| 2025-05-06 | 447.29 EUR | 1164.56 EUR | 0 |
| 2025-05-12 | 446.24 EUR | 1880.00 EUR | 0 |
| 2025-05-19 | 447.58 EUR | 877.45 EUR | 1 |
| 2025-05-28 | 447.36 EUR | 1525.95 EUR | 0 |
| 2025-06-03 | 446.85 EUR | 1736.30 EUR | 0 |
| 2025-06-10 | 438.77 EUR | 1499.25 EUR | 0 |
| 2025-06-17 | 435.13 EUR | 1693.81 EUR | 0 |
| 2025-06-23 | 435.09 EUR | 1483.53 EUR | 0 |
| 2025-07-01 | 432.94 EUR | 432.94 EUR | 0 |
| 2025-07-08 | 432.07 EUR | 1119.39 EUR | 0 |
| 2025-07-15 | 438.63 EUR | 1497.22 EUR | 0 |
| 2025-07-22 | 440.42 EUR | 440.42 EUR | 0 |
| 2025-07-29 | 439.86 EUR | 439.86 EUR | 0 |
| 2025-08-05 | 437.33 EUR | 437.33 EUR | 0 |
| 2025-08-12 | 434.46 EUR | 434.46 EUR | 0 |
| 2025-08-18 | 434.46 EUR | 1135.56 EUR | 0 |
| 2025-08-25 | 434.46 EUR | 434.46 EUR | 0 |
| 2025-09-02 | 434.46 EUR | 434.46 EUR | 0 |
| 2025-09-09 | 434.46 EUR | 434.46 EUR | 1 |
| 2025-09-15 | 434.46 EUR | 434.46 EUR | 0 |
| 2025-09-23 | 453.97 EUR | 453.97 EUR | 0 |
| 2025-09-29 | 491.80 EUR | 491.80 EUR | 0 |
| 2025-10-06 | 492.09 EUR | 492.09 EUR | 0 |
| 2025-10-13 | 508.03 EUR | 508.03 EUR | 0 |
| 2025-10-20 | 498.07 EUR | 1464.51 EUR | 0 |
| 2025-10-27 | 496.30 EUR | 3294.53 EUR | 3 |
| 2025-11-03 | 483.99 EUR | 3174.62 EUR | 0 |
| 2025-11-10 | 462.71 EUR | 3097.28 EUR | 0 |
| 2025-11-18 | 455.37 EUR | 3541.05 EUR | 0 |
| 2025-11-24 | 454.93 EUR | 2594.41 EUR | 0 |
| 2025-12-03 | 440.07 EUR | 3220.22 EUR | 1 |
| 2025-12-08 | 448.40 EUR | 3210.27 EUR | 1 |
| 2025-12-15 | 449.92 EUR | 2982.60 EUR | 0 |
| 2025-12-22 | 456.76 EUR | 2150.57 EUR | 0 |
| 2025-12-29 | 456.42 EUR | 3632.87 EUR | 0 |
| 2026-01-01 | 453.09 EUR | 3929.12 EUR | 0 |
| 2026-01-05 | 446.18 EUR | 2325.60 EUR | 0 |
| 2026-01-13 | 445.86 EUR | 3446.86 EUR | 0 |
| 2026-01-20 | 6002.60 EUR | 6002.60 EUR | 0 |
| 2026-01-26 | 7783.91 EUR | 7783.91 EUR | 0 |
| 2026-02-02 | 7754.33 EUR | 7754.33 EUR | 0 |
| 2026-02-09 | 7704.05 EUR | 7704.05 EUR | 0 |
| 2026-02-16 | 7713.27 EUR | 7713.27 EUR | 0 |
| 2026-02-23 | 7628.37 EUR | 7628.37 EUR | 0 |
| 2026-03-02 | 7691.02 EUR | 7691.02 EUR | 0 |
| 2026-03-10 | 7801.64 EUR | 7801.64 EUR | 0 |
| 2026-03-16 | 7801.64 EUR | 7801.64 EUR | 0 |
| 2026-04-02 | 21993.10 EUR | 21993.10 EUR | 0 |
| 2026-04-07 | 21613.87 EUR | 21613.87 EUR | 0 |
| 2026-04-14 | 20985.19 EUR | 20985.19 EUR | 0 |
| 2026-04-23 | 20888.73 EUR | 20888.73 EUR | 0 |
| 2026-04-30 | 21097.81 EUR | 21097.81 EUR | 0 |
| 2026-05-05 | 21097.81 EUR | 21097.81 EUR | 0 |
| 2026-05-14 | 19723.50 EUR | 19723.50 EUR | 0 |
| 2026-05-20 | 19723.50 EUR | 19723.50 EUR | 0 |
| 2026-05-25 | 19617.72 EUR | 19617.72 EUR | 0 |
| 2026-06-01 | 19475.45 EUR | 19475.45 EUR | 0 |
| 2026-06-08 | 19475.45 EUR | 19475.45 EUR | 0 |
| 2026-06-15 | 15006.11 EUR | 15006.11 EUR | 0 |
| 2026-06-23 | 6072.59 EUR | 6072.59 EUR | 0 |
| 2026-06-29 | 19714.28 EUR | 19714.28 EUR | 0 |
| 2026-07-06 | 11345.13 EUR | 14043.64 EUR | 0 |
| 2026-07-13 | 424.60 EUR | 4470.73 EUR | 0 |
| 2026-07-20 | 424.60 EUR | 4472.88 EUR | 0 |
| 2026-07-27 | 6702.33 EUR | 6702.33 EUR | 0 |
| 2026-08-03 | 5784.58 EUR | 7105.01 EUR | 0 |
| 2026-08-10 | 429.14 EUR | 7055.91 EUR | 0 |
| 2026-08-17 | 436.22 EUR | 8283.43 EUR | 0 |
| 2026-08-24 | 430.91 EUR | 9729.71 EUR | 34 |
| 2026-09-01 | 431.42 EUR | 8175.37 EUR | 71 |
Häufig gestellte Fragen zu Zeit gehen
Welcher Kartentyp ist Zeit gehen?
Zeit gehen ist Zauberspruch Karte hinein Magic: the Gathering MTG.
Welchen Effekt hat Zeit gehen?
Nehmen Sie nach diesem Zug einen zusätzlichen Zug.
Was kostet Zeit gehen?
Zeit gehen beginnt derzeit um € 434,89. Sehen Sie sich die Live-Preise mehrerer Verkäufer oben im Abschnitt „Wo kaufen“ an.
Aus welchem Set stammt Zeit gehen?
Zeit gehen wurde erstmals im Set veröffentlicht Limited Edition Alpha, illustriert von Amy Weber.
Wie ist die Legalität von Zeit gehen?
Die Legalität hängt vom Turnierformat ab – Zeit gehen kann in einigen Formaten legal und in anderen verboten oder eingeschränkt sein. Die vollständige Aufschlüsselung nach Format finden Sie oben im Abschnitt „Rechtmäßigkeit“.
Welche kompetitiven Formate gibt es für Zeit gehen?
Zeit gehen sieht kompetitives Metagame im Spiel 1 Format(e): Vintage.
Welche Combos gibt es mit Zeit gehen?
Zeit gehen ist eine Schlüsselkarte 1 Combo(s) in unserer Combo-Datenbank, verlinkt im Abschnitt „Combos“ dieser Seite.






Reaktionen
0
0 Kommentare
Sei der erste der kommentiert